Accueil
METAR-TAF:

METAR-TAF

Aéroports :

Aéroport d'Aurigny

Aurigny,

latitude: 49-43N, longitude: 002-12W, altitude: 71 m

Observation

Le bulletin a été fait il y a 47 minutes, à 17:20 UTC
Vent 22 kt de sud-ouest
Température 16°C
Humidité 82%
Pression 1011 hPa
Visibilité 10 km ou plus
Quelques nuages à une hauteur de 3700 ft

METAR: EGJA 281720Z 23022KT 9999 FEW037 16/13 Q1011

Heure: 19:07 (18:07 UTC)

Prévision

Le bulletin a été fait il y a 4 heures et 5 minutes, à 14:02 UTC
Prévision valable du 28 à 15 UTC au 29 à 00 UTC
Vent 18 kt de ouest/sud-ouest
Visibilité 10 km ou plus
Quelques nuages à une hauteur de 1500 ft
Probabilité 30% :
Temporairement
du 28 à 15 UTC au 28 à 20 UTC
Vent 20 kt de ouest/sud-ouest avec des rafales jusqu'à 30 kt

TAF: EGJA 281402Z 2815/2900 24018KT 9999 FEW015 PROB30 TEMPO 2815/2820 25020G30KT

Observations et prévisions météorologiques de plus de 4000 aéroports (messages METAR et TAF).

Les stations disponibles sont représentées par des disques jaunes et rouges sur la carte.

Passer la souris dessus pour voir le nom de la station.

Cliquer dessus pour voir les observations et prévisions météorologiques.

Pour changer de carte: cliquez sur les boutons verts avec une croix noire pour zoomer, sur le bouton vert avec un tiret pour effectuer un zoom arrière, ou sur les flèches vertes pour les cartes adjacentes.


METAR-TAF: